Time;durP1;ratioP1;P1;durP2;ratioP2;P2;SDS_P1;SDS_P2;PMS_P1;PMS_P2;Temp;Humidity;BMP_temperature;BMP_pressure;BME280_temperature;BME280_humidity;BME280_pressure;Samples;Min_cycle;Max_cycle;Signal;HPM_P1;HPM_P2
2024/04/12 00:01:04;;;;;;;17.23;2.40;;;14.10;99.90;;;;;;5457948;26;20387;-87
2024/04/12 00:03:31;;;;;;;15.70;1.97;;;14.10;99.90;;;;;;5426622;26;20447;-87
2024/04/12 00:06:00;;;;;;;14.00;1.90;;;14.20;99.90;;;;;;5426168;26;20451;-87
2024/04/12 00:08:29;;;;;;;14.97;2.23;;;14.20;99.90;;;;;;5458240;26;20443;-86
2024/04/12 00:11:03;;;;;;;14.43;1.73;;;14.20;99.90;;;;;;5425943;26;20556;-86
2024/04/12 00:13:32;;;;;;;15.83;2.20;;;14.30;99.90;;;;;;5457089;26;20462;-87
2024/04/12 00:16:03;;;;;;;16.83;1.80;;;14.20;99.90;;;;;;5456453;26;20516;-87
2024/04/12 00:18:29;;;;;;;15.00;1.90;;;14.20;99.90;;;;;;5457983;26;20491;-86
2024/04/12 00:21:01;;;;;;;14.40;1.90;;;14.20;99.90;;;;;;5458468;26;20522;-87
2024/04/12 00:23:33;;;;;;;15.10;1.90;;;14.20;99.90;;;;;;5450754;26;20458;-85
2024/04/12 00:26:02;;;;;;;15.77;2.73;;;14.10;99.90;;;;;;5419627;26;20447;-86
2024/04/12 00:28:34;;;;;;;14.63;2.00;;;14.20;99.90;;;;;;5426881;26;20481;-86
2024/04/12 00:31:01;;;;;;;17.23;2.60;;;14.20;99.90;;;;;;5423915;26;20440;-86
2024/04/12 00:33:34;;;;;;;15.00;2.20;;;14.20;99.90;;;;;;5456398;26;20471;-86
2024/04/12 00:36:07;;;;;;;14.57;2.10;;;14.20;99.90;;;;;;5455517;26;20491;-86
2024/04/12 00:38:37;;;;;;;15.20;2.20;;;14.30;99.90;;;;;;5424618;26;20447;-84
2024/04/12 00:41:11;;;;;;;15.63;2.40;;;14.30;99.90;;;;;;5491325;20;20478;-86
2024/04/12 00:43:45;;;;;;;16.10;2.60;;;14.30;99.90;;;;;;5421905;26;20490;-85
2024/04/12 00:46:23;;;;;;;14.43;2.10;;;14.30;99.90;;;;;;5454769;26;20490;-84
2024/04/12 00:48:51;;;;;;;16.00;2.47;;;14.30;99.90;;;;;;5423632;26;20865;-83
2024/04/12 00:51:18;;;;;;;19.00;2.20;;;14.30;99.90;;;;;;5455032;26;20431;-83
2024/04/12 00:53:56;;;;;;;16.03;2.33;;;14.30;99.90;;;;;;5455107;26;20436;-83
2024/04/12 00:56:22;;;;;;;14.93;2.10;;;14.40;99.90;;;;;;5455109;26;20379;-83
2024/04/12 00:58:48;;;;;;;14.87;1.90;;;14.40;99.90;;;;;;5454666;26;20491;-83
2024/04/12 01:01:17;;;;;;;14.63;2.10;;;14.40;99.90;;;;;;5455300;26;20784;-84
2024/04/12 01:03:47;;;;;;;13.90;2.23;;;14.40;99.90;;;;;;5454614;26;20490;-83
2024/04/12 01:06:29;;;;;;;13.60;1.63;;;14.40;99.90;;;;;;5454508;26;20826;-83
2024/04/12 01:09:04;;;;;;;17.37;2.17;;;14.40;99.90;;;;;;5454530;26;20416;-83
2024/04/12 01:11:32;;;;;;;18.03;1.77;;;14.40;99.90;;;;;;5454999;26;21041;-84
2024/04/12 01:13:58;;;;;;;17.00;1.77;;;14.40;99.90;;;;;;5422922;26;20440;-83
2024/04/12 01:16:24;;;;;;;13.20;1.70;;;14.30;99.90;;;;;;5393243;26;20446;-83
2024/04/12 01:18:55;;;;;;;13.93;1.73;;;14.30;99.90;;;;;;5454728;26;20550;-83
2024/04/12 01:21:23;;;;;;;14.37;2.10;;;14.30;99.90;;;;;;5454507;26;20170;-83
2024/04/12 01:23:53;;;;;;;13.27;1.80;;;14.30;99.90;;;;;;5422414;26;20444;-84
2024/04/12 01:26:20;;;;;;;16.90;2.20;;;14.30;99.90;;;;;;5423451;26;20448;-83
2024/04/12 01:28:48;;;;;;;16.57;2.23;;;14.30;99.90;;;;;;5422273;26;20837;-83
2024/04/12 01:31:15;;;;;;;17.80;2.00;;;14.40;99.90;;;;;;5454020;26;20522;-83
2024/04/12 01:33:50;;;;;;;13.80;1.77;;;14.40;99.90;;;;;;5422322;26;20445;-83
2024/04/12 01:36:21;;;;;;;13.97;1.80;;;14.40;99.90;;;;;;5421726;26;20784;-83
2024/04/12 01:38:53;;;;;;;17.57;1.90;;;14.40;99.90;;;;;;5453551;26;20941;-83
2024/04/12 01:41:31;;;;;;;16.50;2.10;;;14.40;99.90;;;;;;5453234;26;20486;-83
2024/04/12 01:44:04;;;;;;;14.83;1.50;;;14.50;99.90;;;;;;5421221;26;20869;-83
2024/04/12 01:46:31;;;;;;;16.23;2.20;;;14.50;99.90;;;;;;5421358;26;20518;-83
2024/04/12 01:49:00;;;;;;;19.13;2.10;;;14.50;99.90;;;;;;5422867;26;20849;-83
2024/04/12 01:51:26;;;;;;;15.00;1.90;;;14.50;99.90;;;;;;5424873;26;20467;-83
2024/04/12 01:53:57;;;;;;;14.70;2.00;;;14.50;99.90;;;;;;5424835;26;20483;-83
2024/04/12 01:56:23;;;;;;;15.53;2.20;;;14.50;99.90;;;;;;5424997;26;20528;-83
2024/04/12 01:58:51;;;;;;;15.43;1.90;;;14.50;99.90;;;;;;5425062;26;20891;-83
2024/04/12 02:01:17;;;;;;;13.50;1.40;;;14.50;99.90;;;;;;5458872;26;20544;-84
2024/04/12 02:03:44;;;;;;;14.97;2.27;;;14.50;99.90;;;;;;5426918;26;20433;-84
2024/04/12 02:06:09;;;;;;;14.47;1.60;;;14.60;99.90;;;;;;5457697;26;20494;-83
2024/04/12 02:08:35;;;;;;;15.63;2.50;;;14.60;99.90;;;;;;5457220;26;20944;-83
2024/04/12 02:11:09;;;;;;;13.60;1.80;;;14.60;99.90;;;;;;5457845;26;20702;-84
2024/04/12 02:13:38;;;;;;;13.07;1.50;;;14.60;99.90;;;;;;5424805;26;20836;-84
2024/04/12 02:16:10;;;;;;;13.73;1.70;;;14.60;99.90;;;;;;5457436;26;20904;-84
2024/04/12 02:18:38;;;;;;;15.83;1.70;;;14.60;99.90;;;;;;5457052;26;20518;-84
2024/04/12 02:21:05;;;;;;;15.40;2.40;;;14.60;99.90;;;;;;5457449;26;20429;-84
2024/04/12 02:23:34;;;;;;;12.90;1.30;;;14.60;99.90;;;;;;5457513;26;20835;-84
2024/04/12 02:26:01;;;;;;;12.80;1.30;;;14.60;99.90;;;;;;5457334;26;20431;-84
2024/04/12 02:28:27;;;;;;;12.87;1.30;;;14.60;99.90;;;;;;5459008;26;20485;-84
2024/04/12 02:30:57;;;;;;;15.13;1.30;;;14.60;99.90;;;;;;5428047;26;20444;-84
2024/04/12 02:33:31;;;;;;;13.00;1.47;;;14.60;99.90;;;;;;5427931;26;21018;-84
2024/04/12 02:36:11;;;;;;;13.60;1.43;;;14.60;99.90;;;;;;5427897;26;20448;-84
2024/04/12 02:38:43;;;;;;;14.40;1.43;;;14.60;99.90;;;;;;5427903;26;20444;-83
2024/04/12 02:41:13;;;;;;;12.87;1.20;;;14.60;99.90;;;;;;5427894;26;20447;-84
2024/04/12 02:43:40;;;;;;;13.37;1.57;;;14.60;99.90;;;;;;5427810;26;20432;-84
2024/04/12 02:46:09;;;;;;;14.47;1.60;;;14.60;99.90;;;;;;5459392;26;20960;-84
2024/04/12 02:48:36;;;;;;;15.30;1.90;;;14.60;99.90;;;;;;5459703;26;20439;-84
2024/04/12 02:51:05;;;;;;;13.10;1.53;;;14.60;99.90;;;;;;5459792;26;20900;-84
2024/04/12 02:53:31;;;;;;;12.67;1.17;;;14.60;99.90;;;;;;5427405;26;20526;-84
2024/04/12 02:56:10;;;;;;;13.23;1.30;;;14.60;99.90;;;;;;5458928;26;20423;-84
2024/04/12 02:58:39;;;;;;;14.60;1.50;;;14.60;99.90;;;;;;5459266;26;20564;-84
2024/04/12 03:01:10;;;;;;;14.53;2.10;;;14.50;99.90;;;;;;5458335;26;20435;-84
2024/04/12 03:03:41;;;;;;;15.10;1.60;;;14.50;99.90;;;;;;5458915;26;20444;-84
2024/04/12 03:06:09;;;;;;;14.00;1.70;;;14.40;99.90;;;;;;5427494;26;20441;-84
2024/04/12 03:08:40;;;;;;;19.40;1.70;;;14.50;99.90;;;;;;5427831;26;20452;-84
2024/04/12 03:11:13;;;;;;;14.13;1.60;;;14.50;99.90;;;;;;5426953;26;20955;-84
2024/04/12 03:13:40;;;;;;;14.57;1.67;;;14.50;99.90;;;;;;5427349;26;20448;-84
2024/04/12 03:16:13;;;;;;;13.37;1.60;;;14.50;99.90;;;;;;5427243;26;20954;-84
2024/04/12 03:18:51;;;;;;;13.50;1.63;;;14.50;99.90;;;;;;5426681;26;20449;-84
2024/04/12 03:21:30;;;;;;;14.00;1.90;;;14.50;99.90;;;;;;5456989;26;20388;-84
2024/04/12 03:23:57;;;;;;;12.67;1.10;;;14.50;99.90;;;;;;5456752;26;20426;-84
2024/04/12 03:26:24;;;;;;;12.80;1.20;;;14.50;99.90;;;;;;5456876;26;20488;-83
2024/04/12 03:28:54;;;;;;;14.00;1.57;;;14.50;99.90;;;;;;5424549;26;20936;-84
2024/04/12 03:31:25;;;;;;;13.97;1.47;;;14.50;99.90;;;;;;5424685;26;20445;-84
2024/04/12 03:33:51;;;;;;;13.17;1.30;;;14.50;99.90;;;;;;5456702;26;20544;-84
2024/04/12 03:42:06;;;;;;;13.23;1.57;;;14.40;99.90;;;;;;5456538;26;20575;-84
2024/04/12 03:44:33;;;;;;;12.57;1.07;;;14.40;99.90;;;;;;5424542;26;20563;-83
2024/04/12 03:47:01;;;;;;;14.60;2.00;;;14.30;99.90;;;;;;5395380;26;20455;-84
2024/04/12 03:49:30;;;;;;;15.70;1.73;;;14.40;99.90;;;;;;5424506;26;20453;-84
2024/04/12 03:51:57;;;;;;;13.23;1.30;;;14.40;99.90;;;;;;5424473;26;20560;-84
2024/04/12 03:54:24;;;;;;;14.63;1.53;;;14.40;99.90;;;;;;5424672;26;20555;-83
2024/04/12 03:56:56;;;;;;;13.50;1.67;;;14.40;99.90;;;;;;5456103;26;20438;-84
2024/04/12 03:59:27;;;;;;;13.37;1.60;;;14.40;99.90;;;;;;5456241;26;20392;-84
2024/04/12 04:01:54;;;;;;;12.97;1.43;;;14.50;99.90;;;;;;5425095;26;20526;-84
2024/04/12 04:04:25;;;;;;;13.40;1.80;;;14.40;99.90;;;;;;5424647;26;20508;-84
2024/04/12 04:06:56;;;;;;;16.57;1.77;;;14.50;99.90;;;;;;5456397;26;20383;-84
2024/04/12 04:09:22;;;;;;;13.67;1.63;;;14.40;99.90;;;;;;5457549;26;20961;-84
2024/04/12 04:11:49;;;;;;;13.00;1.47;;;14.40;99.90;;;;;;5426138;26;20548;-84
2024/04/12 04:14:19;;;;;;;14.53;1.60;;;14.40;99.90;;;;;;5426902;26;20443;-84
2024/04/12 04:16:49;;;;;;;13.77;1.60;;;14.40;99.90;;;;;;5458287;26;20394;-84
2024/04/12 04:19:18;;;;;;;12.83;1.50;;;14.40;99.90;;;;;;5426720;26;20449;-84
2024/04/12 04:21:45;;;;;;;12.83;1.50;;;14.40;99.90;;;;;;5458415;26;20505;-84
2024/04/12 04:24:11;;;;;;;13.70;1.90;;;14.40;99.90;;;;;;5458414;26;20848;-84
2024/04/12 04:26:37;;;;;;;13.70;1.83;;;14.40;99.90;;;;;;5457840;26;20436;-84
2024/04/12 04:29:10;;;;;;;13.40;1.63;;;14.40;99.90;;;;;;5426055;26;20217;-84
2024/04/12 04:31:47;;;;;;;13.57;1.33;;;14.40;99.90;;;;;;5426350;26;20257;-84
2024/04/12 04:34:14;;;;;;;13.37;1.30;;;14.40;99.90;;;;;;5458012;26;20420;-84
2024/04/12 04:36:40;;;;;;;13.90;1.50;;;14.30;99.90;;;;;;5425395;26;20522;-84
2024/04/12 04:39:06;;;;;;;20.43;2.07;;;14.30;99.90;;;;;;5425308;26;20448;-84
2024/04/12 04:41:33;;;;;;;17.90;2.17;;;14.20;99.90;;;;;;5456733;26;20460;-84
2024/04/12 04:44:01;;;;;;;14.07;1.83;;;14.20;99.90;;;;;;5456771;26;20432;-84
2024/04/12 04:46:30;;;;;;;13.77;1.83;;;14.30;99.90;;;;;;5457358;26;20439;-84
2024/04/12 04:48:58;;;;;;;16.70;2.50;;;14.20;99.90;;;;;;5457552;26;20501;-84
2024/04/12 04:51:23;;;;;;;18.93;1.83;;;14.20;99.90;;;;;;5457425;26;20436;-84
2024/04/12 04:53:52;;;;;;;14.60;2.70;;;14.30;99.90;;;;;;5424985;26;20684;-84
2024/04/12 04:56:30;;;;;;;18.83;2.67;;;14.30;99.90;;;;;;5456678;26;20206;-84
2024/04/12 04:58:57;;;;;;;14.70;2.70;;;14.30;99.90;;;;;;5424690;26;20450;-84
2024/04/12 05:01:25;;;;;;;17.93;2.70;;;14.30;99.90;;;;;;5423057;26;20873;-84
2024/04/12 05:03:52;;;;;;;14.43;2.40;;;14.30;99.90;;;;;;5454523;26;20435;-84
2024/04/12 05:06:27;;;;;;;14.57;2.47;;;14.30;99.90;;;;;;5422303;26;20443;-84
2024/04/12 05:09:00;;;;;;;13.83;2.20;;;14.30;99.90;;;;;;5422463;26;20501;-84
2024/04/12 05:11:30;;;;;;;19.40;2.83;;;14.30;99.90;;;;;;5422470;26;20470;-84
2024/04/12 05:13:57;;;;;;;14.10;2.40;;;14.30;99.90;;;;;;5454798;26;20440;-84
2024/04/12 05:16:23;;;;;;;17.43;2.20;;;14.30;99.90;;;;;;5454985;26;20511;-84
2024/04/12 05:18:55;;;;;;;18.40;2.80;;;14.30;99.90;;;;;;5423594;26;20446;-84
2024/04/12 05:21:23;;;;;;;16.93;2.67;;;14.30;99.90;;;;;;5422921;26;20267;-84
2024/04/12 05:23:51;;;;;;;15.40;2.70;;;14.30;99.90;;;;;;5425841;26;20507;-84
2024/04/12 05:26:20;;;;;;;16.33;2.97;;;14.30;99.90;;;;;;5457994;26;20955;-84
2024/04/12 05:28:47;;;;;;;15.07;3.40;;;14.30;99.90;;;;;;5458040;26;20545;-84
2024/04/12 05:31:13;;;;;;;15.83;2.40;;;14.30;99.90;;;;;;5457516;26;20549;-83
2024/04/12 05:33:42;;;;;;;17.60;2.50;;;14.40;99.90;;;;;;5458356;26;20434;-83
2024/04/12 05:36:11;;;;;;;16.03;2.70;;;14.40;99.90;;;;;;5426138;26;20952;-83
2024/04/12 05:38:37;;;;;;;14.40;2.30;;;14.40;99.90;;;;;;5425540;26;20448;-83
2024/04/12 05:41:04;;;;;;;15.90;2.70;;;14.40;99.90;;;;;;5425599;26;20458;-83
2024/04/12 05:43:31;;;;;;;19.43;2.87;;;14.40;99.90;;;;;;5457469;26;20447;-84
2024/04/12 05:45:57;;;;;;;15.30;2.43;;;14.50;99.90;;;;;;5425403;26;20444;-83
2024/04/12 05:48:24;;;;;;;13.73;2.13;;;14.50;99.90;;;;;;5457171;26;20500;-83
2024/04/12 05:50:53;;;;;;;14.20;2.83;;;14.50;99.90;;;;;;5462319;26;20836;-84
2024/04/12 05:53:33;;;;;;;15.70;2.67;;;14.50;99.90;;;;;;5432474;26;20464;-84
2024/04/12 05:58:43;;;;;;;16.27;2.70;;;14.50;99.90;;;;;;5464241;26;20948;-84
2024/04/12 06:01:09;;;;;;;20.90;3.70;;;14.60;99.90;;;;;;5432557;26;20462;-84
2024/04/12 06:03:42;;;;;;;16.57;3.63;;;14.60;99.90;;;;;;5462781;26;20439;-84
2024/04/12 06:06:14;;;;;;;16.67;3.60;;;14.50;99.90;;;;;;5431515;26;20448;-84
2024/04/12 06:08:41;;;;;;;18.60;3.30;;;14.60;99.90;;;;;;5431922;26;20498;-84
2024/04/12 06:11:09;;;;;;;19.97;4.10;;;14.70;99.90;;;;;;5462439;26;20445;-84
2024/04/12 06:13:38;;;;;;;17.23;4.40;;;14.70;99.90;;;;;;5430481;26;20499;-84
2024/04/12 06:16:04;;;;;;;17.40;3.80;;;14.70;99.90;;;;;;5428403;26;20952;-83
2024/04/12 06:18:30;;;;;;;17.40;4.00;;;14.60;99.90;;;;;;5425030;26;20453;-83
2024/04/12 06:20:55;;;;;;;18.03;4.30;;;14.60;99.90;;;;;;5425467;26;20454;-83
2024/04/12 06:23:22;;;;;;;17.57;4.20;;;14.60;99.90;;;;;;5457224;26;20459;-83
2024/04/12 06:25:50;;;;;;;23.80;4.03;;;14.70;99.90;;;;;;5425311;26;20236;-83
2024/04/12 06:28:19;;;;;;;17.00;3.37;;;14.70;99.90;;;;;;5424918;26;20552;-83
2024/04/12 06:30:52;;;;;;;15.57;3.47;;;14.70;99.90;;;;;;5456901;26;20496;-84
2024/04/12 06:33:22;;;;;;;15.50;3.13;;;14.70;99.90;;;;;;5425206;26;20483;-83
2024/04/12 06:36:11;;;;;;;17.50;2.87;;;14.70;99.90;;;;;;5424363;26;20457;-83
2024/04/12 06:38:38;;;;;;;14.00;2.33;;;14.70;99.90;;;;;;5456982;26;20844;-83
2024/04/12 06:41:10;;;;;;;15.50;2.70;;;14.70;99.90;;;;;;5455508;20;20533;-85
2024/04/12 06:43:42;;;;;;;13.60;2.43;;;14.80;99.90;;;;;;5417602;26;20482;-85
2024/04/12 06:46:14;;;;;;;14.60;2.37;;;14.70;99.90;;;;;;5449477;26;20467;-86
2024/04/12 06:48:41;;;;;;;14.13;2.30;;;14.80;99.90;;;;;;5420825;26;20449;-85
2024/04/12 06:51:11;;;;;;;16.20;3.23;;;14.70;99.90;;;;;;5420840;26;20437;-85
2024/04/12 06:53:44;;;;;;;16.93;3.30;;;14.80;99.90;;;;;;5449297;26;20502;-85
2024/04/12 06:56:15;;;;;;;15.33;2.73;;;14.80;99.90;;;;;;5421693;26;20497;-85
2024/04/12 06:58:46;;;;;;;15.67;2.53;;;14.80;99.90;;;;;;5419359;26;20514;-85
2024/04/12 07:01:12;;;;;;;15.20;2.60;;;14.90;99.90;;;;;;5421608;26;20505;-85
2024/04/12 07:03:45;;;;;;;18.03;2.87;;;14.90;99.90;;;;;;5420622;26;20524;-85
2024/04/12 07:06:14;;;;;;;14.17;2.10;;;14.90;99.90;;;;;;5421633;26;20524;-85
2024/04/12 07:08:49;;;;;;;14.77;2.40;;;14.90;99.90;;;;;;5420379;26;20500;-85
2024/04/12 07:11:16;;;;;;;14.03;1.80;;;14.90;99.90;;;;;;5420346;26;20492;-85
2024/04/12 07:13:49;;;;;;;16.37;2.17;;;14.90;99.90;;;;;;5421542;26;20495;-85
2024/04/12 07:16:16;;;;;;;14.77;3.93;;;14.90;99.90;;;;;;5421819;26;20445;-85
2024/04/12 07:18:42;;;;;;;14.83;2.63;;;14.90;99.90;;;;;;5421597;26;20440;-86
2024/04/12 07:21:18;;;;;;;16.93;2.93;;;14.90;99.90;;;;;;5421217;26;20504;-85
2024/04/12 07:23:53;;;;;;;15.70;2.20;;;14.90;99.90;;;;;;5421394;26;20242;-86
2024/04/12 07:26:24;;;;;;;14.63;2.20;;;15.00;99.90;;;;;;5450139;26;20459;-86
2024/04/12 07:28:58;;;;;;;18.77;3.23;;;14.90;99.90;;;;;;5421257;26;20447;-85
2024/04/12 07:31:25;;;;;;;16.73;1.97;;;15.00;99.90;;;;;;5421559;26;20512;-85
2024/04/12 07:33:51;;;;;;;14.97;2.33;;;15.10;99.90;;;;;;5449416;26;20466;-85
2024/04/12 07:36:17;;;;;;;14.30;2.07;;;15.20;99.90;;;;;;5449487;26;20448;-85
2024/04/12 07:38:43;;;;;;;17.30;2.50;;;15.10;99.90;;;;;;5420423;26;20441;-85
2024/04/12 07:41:11;;;;;;;13.70;2.13;;;15.10;99.90;;;;;;5420347;26;20508;-85
2024/04/12 07:43:42;;;;;;;15.17;2.13;;;15.20;99.90;;;;;;5419190;26;20286;-85
2024/04/12 07:46:14;;;;;;;15.43;1.90;;;15.30;99.90;;;;;;5420876;26;20559;-85
2024/04/12 07:48:48;;;;;;;17.53;1.60;;;15.40;99.90;;;;;;5419947;26;20491;-85
2024/04/12 07:51:20;;;;;;;14.97;2.33;;;15.40;99.90;;;;;;5420404;26;20489;-85
2024/04/12 07:53:47;;;;;;;13.40;2.00;;;15.40;99.90;;;;;;5420971;26;20982;-86
2024/04/12 07:56:16;;;;;;;13.63;1.67;;;15.40;99.90;;;;;;5420065;26;20532;-85
2024/04/12 07:58:43;;;;;;;15.87;1.87;;;15.40;99.90;;;;;;5419658;26;20447;-85
2024/04/12 08:01:15;;;;;;;13.70;1.83;;;15.50;99.90;;;;;;5448325;26;20491;-85
2024/04/12 08:03:50;;;;;;;14.77;1.90;;;15.70;99.90;;;;;;5419514;26;20446;-85
2024/04/12 08:06:19;;;;;;;13.77;1.97;;;15.80;99.90;;;;;;5419883;26;20442;-85
2024/04/12 08:09:03;;;;;;;13.83;2.00;;;15.90;99.90;;;;;;5447186;26;20491;-85
2024/04/12 08:11:34;;;;;;;15.20;2.43;;;16.00;99.90;;;;;;5417916;26;20484;-84
2024/04/12 08:14:08;;;;;;;13.43;1.90;;;16.10;99.90;;;;;;5448501;26;20447;-85
2024/04/12 08:16:46;;;;;;;16.83;2.57;;;16.30;99.90;;;;;;5419537;26;20427;-85
2024/04/12 08:19:14;;;;;;;13.73;1.90;;;16.50;99.90;;;;;;5447643;26;20580;-85
2024/04/12 08:21:44;;;;;;;15.60;2.73;;;16.50;99.90;;;;;;5419288;26;20536;-85
2024/04/12 08:24:14;;;;;;;13.07;1.50;;;16.60;99.90;;;;;;5447514;26;20444;-85
2024/04/12 08:26:46;;;;;;;21.53;2.13;;;16.80;99.90;;;;;;5419884;26;20420;-85
2024/04/12 08:29:26;;;;;;;14.23;1.50;;;16.80;99.90;;;;;;5446731;26;20455;-85
2024/04/12 08:32:13;;;;;;;14.37;2.03;;;17.00;99.90;;;;;;5418460;26;20444;-85
2024/04/12 08:34:45;;;;;;;14.43;2.87;;;17.20;98.10;;;;;;5417612;26;20393;-86
2024/04/12 08:37:13;;;;;;;19.60;3.10;;;17.40;92.40;;;;;;5416604;26;20504;-85
2024/04/12 08:39:43;;;;;;;14.80;2.13;;;17.40;95.10;;;;;;5415670;26;20492;-84
2024/04/12 08:42:16;;;;;;;18.40;2.90;;;17.40;93.10;;;;;;5418093;26;21009;-85
2024/04/12 08:44:44;;;;;;;13.73;2.23;;;17.50;93.90;;;;;;5447881;26;20539;-86
2024/04/12 08:50:13;;;;;;;14.90;2.40;;;17.50;92.80;;;;;;5419796;26;20405;-86
2024/04/12 08:52:58;;;;;;;17.83;3.13;;;17.60;90.20;;;;;;5413532;26;20508;-85
2024/04/12 08:55:24;;;;;;;14.70;2.43;;;17.60;87.00;;;;;;5419128;26;20488;-85
2024/04/12 08:58:00;;;;;;;14.57;2.13;;;17.60;89.50;;;;;;5419481;26;20809;-85
2024/04/12 09:00:33;;;;;;;14.83;2.57;;;17.70;86.90;;;;;;5421524;26;20482;-85
2024/04/12 09:03:04;;;;;;;22.93;2.90;;;17.80;81.60;;;;;;5449397;26;20461;-86
2024/04/12 09:05:35;;;;;;;20.53;3.10;;;17.80;88.00;;;;;;5420857;26;20393;-86
2024/04/12 09:08:03;;;;;;;15.47;2.70;;;17.90;79.00;;;;;;5420385;26;20429;-85
2024/04/12 09:10:36;;;;;;;13.93;2.20;;;18.00;77.70;;;;;;5447437;26;20542;-86
2024/04/12 09:13:09;;;;;;;16.20;1.80;;;17.80;63.20;;;;;;5421585;26;20487;-85
2024/04/12 09:15:38;;;;;;;20.87;2.97;;;17.90;73.50;;;;;;5449950;26;20438;-86
2024/04/12 09:18:13;;;;;;;16.73;2.90;;;17.90;90.40;;;;;;5422231;26;20755;-86
2024/04/12 09:20:40;;;;;;;14.93;2.63;;;17.90;89.00;;;;;;5421499;26;20448;-86
2024/04/12 09:23:16;;;;;;;16.40;3.27;;;18.00;88.40;;;;;;5419888;26;20508;-85
2024/04/12 09:25:55;;;;;;;17.57;3.13;;;17.90;87.00;;;;;;5420834;26;20483;-85
2024/04/12 09:28:32;;;;;;;15.20;3.00;;;18.10;79.50;;;;;;5450111;26;20476;-86
2024/04/12 09:33:50;;;;;;;14.97;2.50;;;18.10;55.70;;;;;;5423851;26;20520;-86
2024/04/12 09:36:39;;;;;;;15.53;2.57;;;18.00;70.00;;;;;;5422252;26;20412;-86
2024/04/12 09:39:14;;;;;;;18.17;2.87;;;18.10;73.20;;;;;;5448948;26;20515;-86
2024/04/12 09:41:53;;;;;;;21.13;2.70;;;18.10;61.80;;;;;;5422188;26;20523;-86
2024/04/12 09:44:41;;;;;;;22.77;2.87;;;18.20;70.30;;;;;;5422126;26;20950;-85
2024/04/12 10:37:29;;;;;;;13.03;1.80;;;19.50;9.40;;;;;;5423231;26;20433;-86
2024/04/12 10:39:58;;;;;;;14.47;2.03;;;19.60;1.20;;;;;;5421593;26;20447;-86
2024/04/12 10:42:28;;;;;;;16.47;1.70;;;19.70;1.00;;;;;;5449028;26;20461;-85
2024/04/12 10:44:59;;;;;;;14.30;1.40;;;19.60;1.00;;;;;;5419581;26;20450;-85
2024/04/12 10:47:25;;;;;;;14.00;1.50;;;19.40;1.00;;;;;;5419008;26;20447;-85
2024/04/12 10:49:52;;;;;;;13.00;1.43;;;19.30;1.00;;;;;;5420111;26;20484;-85
2024/04/12 10:52:29;;;;;;;15.67;1.70;;;19.20;1.00;;;;;;5421197;26;20457;-86
2024/04/12 10:55:00;;;;;;;12.90;1.37;;;19.20;3.20;;;;;;5420318;26;20483;-85
2024/04/12 10:57:29;;;;;;;15.57;2.33;;;19.30;1.00;;;;;;5448873;26;20440;-86
2024/04/12 11:00:00;;;;;;;12.90;1.20;;;19.30;2.10;;;;;;5421575;26;20429;-86
2024/04/12 11:02:27;;;;;;;15.73;1.70;;;19.20;4.00;;;;;;5421782;26;20443;-85
2024/04/12 11:05:24;;;;;;;14.57;1.77;;;19.40;1.00;;;;;;5448717;26;20488;-85
2024/04/12 11:07:52;;;;;;;13.93;1.40;;;19.40;1.00;;;;;;5420628;26;20421;-86
2024/04/12 11:10:38;;;;;;;14.60;1.90;;;19.40;1.00;;;;;;5420424;26;20492;-86
2024/04/12 11:13:06;;;;;;;15.63;2.10;;;19.40;1.00;;;;;;5446119;26;20791;-84
2024/04/12 11:32:12;;;;;;;13.83;1.90;;;19.60;1.00;;;;;;5421509;26;20553;-86
2024/04/12 11:34:40;;;;;;;13.67;1.60;;;19.40;1.00;;;;;;5420916;26;20461;-86
2024/04/12 11:37:08;;;;;;;14.80;1.40;;;19.30;1.00;;;;;;5420489;26;20447;-85
2024/04/12 11:39:38;;;;;;;13.47;1.73;;;19.10;1.00;;;;;;5420193;26;20457;-85
2024/04/12 11:42:05;;;;;;;20.00;1.83;;;19.10;1.00;;;;;;5449279;26;20902;-85
2024/04/12 11:44:34;;;;;;;14.27;1.70;;;19.10;6.50;;;;;;5420685;26;20437;-86
2024/04/12 11:47:05;;;;;;;13.90;1.40;;;19.10;5.90;;;;;;5420130;26;20530;-85
2024/04/12 11:49:41;;;;;;;13.00;1.20;;;19.20;1.00;;;;;;5420194;26;20388;-86
2024/04/12 11:52:18;;;;;;;13.53;1.63;;;19.20;1.00;;;;;;5448702;26;20469;-85
2024/04/12 11:54:51;;;;;;;13.23;1.40;;;19.30;1.00;;;;;;5420822;26;20384;-85
2024/04/12 11:57:26;;;;;;;13.30;1.40;;;19.30;1.00;;;;;;5421058;26;20460;-85
2024/04/12 11:59:58;;;;;;;14.33;1.63;;;19.20;3.40;;;;;;5418931;26;20384;-85
2024/04/12 12:02:24;;;;;;;13.77;1.70;;;19.30;1.00;;;;;;5420483;26;20448;-86
2024/04/12 12:04:51;;;;;;;14.60;1.43;;;19.30;1.00;;;;;;5419195;26;20433;-85
2024/04/12 12:07:17;;;;;;;13.40;1.60;;;19.20;1.00;;;;;;5420465;26;20433;-86
2024/04/12 12:09:43;;;;;;;13.77;1.90;;;19.10;3.00;;;;;;5447156;26;20448;-85
2024/04/12 12:12:12;;;;;;;13.20;1.57;;;19.00;1.00;;;;;;5418459;26;20275;-85
2024/04/12 12:14:41;;;;;;;13.57;1.53;;;19.00;1.00;;;;;;5418384;26;20544;-85
2024/04/12 12:17:07;;;;;;;13.93;1.50;;;19.10;1.00;;;;;;5418942;26;20433;-85
2024/04/12 12:19:33;;;;;;;13.40;1.30;;;19.20;1.00;;;;;;5448131;26;20440;-86
2024/04/12 12:22:02;;;;;;;13.93;1.57;;;19.20;1.00;;;;;;5420506;26;20513;-86
2024/04/12 12:24:37;;;;;;;14.40;1.47;;;19.20;1.00;;;;;;5448621;26;20545;-85
2024/04/12 12:27:07;;;;;;;13.20;1.53;;;19.20;1.00;;;;;;5418517;26;20482;-85
2024/04/12 12:29:35;;;;;;;12.90;1.17;;;19.30;1.00;;;;;;5447024;26;21156;-86
2024/04/12 12:32:01;;;;;;;12.67;1.27;;;19.40;1.00;;;;;;5445967;26;20472;-86
2024/04/12 12:34:27;;;;;;;12.80;1.10;;;19.40;1.00;;;;;;5447309;26;20446;-86
2024/04/12 12:36:55;;;;;;;12.87;1.23;;;19.50;1.00;;;;;;5417002;26;20550;-85
2024/04/12 12:39:21;;;;;;;16.30;2.17;;;19.60;1.00;;;;;;5418697;26;20342;-84
2024/04/12 12:41:47;;;;;;;16.40;1.30;;;19.50;1.00;;;;;;5417929;26;20478;-85
2024/04/12 12:44:18;;;;;;;16.40;1.37;;;19.40;1.00;;;;;;5417365;26;20436;-85
2024/04/12 12:46:44;;;;;;;12.87;1.07;;;19.50;1.00;;;;;;5445553;26;20248;-86
2024/04/12 12:49:10;;;;;;;13.70;1.30;;;19.60;1.00;;;;;;5416927;26;20952;-85
2024/04/12 12:51:40;;;;;;;12.97;1.30;;;19.80;1.00;;;;;;5417366;26;20475;-86
2024/04/12 12:54:06;;;;;;;13.20;1.43;;;19.90;1.00;;;;;;5416448;26;20214;-84
2024/04/12 12:56:32;;;;;;;13.30;1.20;;;20.10;1.00;;;;;;5417285;26;20839;-85
2024/04/12 12:58:59;;;;;;;14.33;1.30;;;20.20;1.00;;;;;;5444022;26;20437;-85
2024/04/12 13:01:34;;;;;;;13.10;1.23;;;20.40;1.00;;;;;;5416327;26;20210;-85
2024/04/12 13:04:05;;;;;;;14.13;1.37;;;20.70;1.00;;;;;;5442607;26;20481;-85
2024/04/12 13:06:34;;;;;;;13.37;1.00;;;20.90;1.00;;;;;;5414612;26;20822;-86
2024/04/12 13:09:00;;;;;;;13.50;1.23;;;21.10;1.00;;;;;;5415785;26;20479;-85
2024/04/12 13:11:25;;;;;;;12.97;1.27;;;21.20;1.00;;;;;;5414905;26;20476;-85
2024/04/12 13:13:52;;;;;;;19.70;1.57;;;21.30;1.00;;;;;;5415255;26;20542;-85
2024/04/12 13:16:18;;;;;;;13.30;1.10;;;21.40;1.00;;;;;;5415542;26;20267;-85
2024/04/12 13:18:52;;;;;;;13.30;1.53;;;21.80;1.00;;;;;;5416062;26;20432;-85
2024/04/12 13:21:18;;;;;;;15.37;1.37;;;21.90;1.00;;;;;;5444524;26;20444;-85
2024/04/12 13:23:46;;;;;;;12.80;1.20;;;22.20;1.00;;;;;;5414686;26;20507;-85
2024/04/12 13:26:31;;;;;;;14.60;1.40;;;22.40;1.00;;;;;;5442464;26;20482;-86
2024/04/12 13:28:57;;;;;;;14.03;1.43;;;22.10;1.00;;;;;;5415792;26;20487;-85
2024/04/12 13:31:25;;;;;;;13.00;1.23;;;21.90;1.00;;;;;;5415066;26;20554;-85
2024/04/12 13:33:54;;;;;;;13.33;1.07;;;21.90;1.00;;;;;;5443645;26;20842;-85
2024/04/12 13:36:21;;;;;;;14.33;1.20;;;22.30;1.00;;;;;;5414290;26;20558;-85
2024/04/12 13:38:48;;;;;;;12.23;0.87;;;22.50;1.00;;;;;;5415025;26;20444;-85
2024/04/12 13:41:15;;;;;;;14.07;1.23;;;22.80;1.00;;;;;;5414294;26;20464;-85
2024/04/12 13:43:45;;;;;;;13.80;1.63;;;23.00;1.00;;;;;;5415862;26;20441;-85
2024/04/12 13:51:50;;;;;;;12.30;1.23;;;24.00;1.00;;;;;;5419664;26;20501;-85
2024/04/12 13:54:23;;;;;;;13.23;1.40;;;23.90;1.00;;;;;;5418492;26;20488;-85
2024/04/12 13:56:50;;;;;;;14.70;1.80;;;23.80;1.00;;;;;;5414639;26;20557;-86
2024/04/12 13:59:18;;;;;;;14.17;1.00;;;23.60;1.00;;;;;;5418899;26;20433;-86
2024/04/12 14:01:45;;;;;;;13.07;1.50;;;23.50;1.00;;;;;;5444488;26;20521;-85
2024/04/12 14:04:17;;;;;;;13.27;1.30;;;23.50;99.90;;;;;;5417519;26;20256;-86
2024/04/12 14:06:46;;;;;;;13.63;1.40;;;23.20;99.90;;;;;;5418790;26;20390;-86
2024/04/12 14:09:13;;;;;;;15.30;1.90;;;23.30;1.00;;;;;;5417534;26;20534;-85
2024/04/12 14:11:40;;;;;;;12.20;1.00;;;23.50;99.90;;;;;;5417874;26;20498;-86
2024/04/12 14:14:06;;;;;;;12.70;1.47;;;23.60;99.90;;;;;;5418809;26;20491;-86
2024/04/12 14:16:41;;;;;;;12.30;1.00;;;23.80;99.90;;;;;;5417614;26;20448;-85
2024/04/12 14:19:19;;;;;;;14.23;1.63;;;23.90;99.90;;;;;;5415666;26;20424;-85